sensor_id;sensor_type;location;lat;lon;timestamp;pressure;altitude;pressure_sealevel;temperature;humidity
34983;BME280;21187;50.976;13.720;2023-02-12T00:03:05;99933.34;;;8.43;63.12
34983;BME280;21187;50.976;13.720;2023-02-12T00:08:08;99937.41;;;8.46;62.62
34983;BME280;21187;50.976;13.720;2023-02-12T00:13:11;99935.97;;;8.48;62.40
34983;BME280;21187;50.976;13.720;2023-02-12T00:18:15;99938.69;;;8.48;62.24
34983;BME280;21187;50.976;13.720;2023-02-12T00:23:17;99945.41;;;8.51;62.44
34983;BME280;21187;50.976;13.720;2023-02-12T00:28:19;99944.59;;;8.51;62.41
34983;BME280;21187;50.976;13.720;2023-02-12T00:33:21;99959.78;;;8.46;62.52
34983;BME280;21187;50.976;13.720;2023-02-12T00:38:23;99945.53;;;8.41;63.24
34983;BME280;21187;50.976;13.720;2023-02-12T00:43:25;99953.31;;;8.47;62.70
34983;BME280;21187;50.976;13.720;2023-02-12T00:48:27;99955.41;;;8.51;62.59
34983;BME280;21187;50.976;13.720;2023-02-12T00:53:30;99948.19;;;8.46;62.55
34983;BME280;21187;50.976;13.720;2023-02-12T00:58:32;99962.75;;;8.45;62.65
34983;BME280;21187;50.976;13.720;2023-02-12T01:03:33;99965.75;;;8.43;62.52
34983;BME280;21187;50.976;13.720;2023-02-12T01:08:35;99964.13;;;8.42;62.79
34983;BME280;21187;50.976;13.720;2023-02-12T01:13:38;99970.84;;;8.45;62.96
34983;BME280;21187;50.976;13.720;2023-02-12T01:18:41;99968.97;;;8.45;63.07
34983;BME280;21187;50.976;13.720;2023-02-12T01:23:43;99974.31;;;8.51;62.80
34983;BME280;21187;50.976;13.720;2023-02-12T01:28:51;99957.91;;;8.42;62.98
34983;BME280;21187;50.976;13.720;2023-02-12T01:33:55;99969.00;;;8.40;63.11
34983;BME280;21187;50.976;13.720;2023-02-12T01:38:58;99969.00;;;8.40;63.18
34983;BME280;21187;50.976;13.720;2023-02-12T01:44:21;99967.41;;;8.39;63.47
34983;BME280;21187;50.976;13.720;2023-02-12T01:54:25;99974.47;;;8.35;63.70
34983;BME280;21187;50.976;13.720;2023-02-12T01:59:28;99971.28;;;8.33;63.37
34983;BME280;21187;50.976;13.720;2023-02-12T02:04:48;99978.56;;;8.32;63.01
34983;BME280;21187;50.976;13.720;2023-02-12T02:09:51;99977.25;;;8.30;63.46
34983;BME280;21187;50.976;13.720;2023-02-12T02:14:56;99974.03;;;8.28;63.51
34983;BME280;21187;50.976;13.720;2023-02-12T02:20:20;99965.66;;;8.29;63.67
34983;BME280;21187;50.976;13.720;2023-02-12T02:30:56;99963.69;;;8.35;63.01
34983;BME280;21187;50.976;13.720;2023-02-12T02:41:36;99967.03;;;8.27;63.99
34983;BME280;21187;50.976;13.720;2023-02-12T02:46:45;99970.81;;;8.26;63.70
34983;BME280;21187;50.976;13.720;2023-02-12T02:51:51;99985.88;;;8.32;63.58
34983;BME280;21187;50.976;13.720;2023-02-12T02:57:02;99980.22;;;8.28;63.67
34983;BME280;21187;50.976;13.720;2023-02-12T03:02:12;99984.31;;;8.26;63.91
34983;BME280;21187;50.976;13.720;2023-02-12T03:07:30;99985.44;;;8.25;63.77
34983;BME280;21187;50.976;13.720;2023-02-12T03:12:56;99996.13;;;8.30;63.46
34983;BME280;21187;50.976;13.720;2023-02-12T03:18:05;99999.38;;;8.32;63.64
34983;BME280;21187;50.976;13.720;2023-02-12T03:23:11;100009.56;;;8.35;63.89
34983;BME280;21187;50.976;13.720;2023-02-12T03:28:18;100008.72;;;8.40;63.96
34983;BME280;21187;50.976;13.720;2023-02-12T03:38:52;100025.72;;;8.40;63.55
34983;BME280;21187;50.976;13.720;2023-02-12T03:44:06;100034.34;;;8.42;63.26
34983;BME280;21187;50.976;13.720;2023-02-12T03:49:38;100044.66;;;8.35;64.08
34983;BME280;21187;50.976;13.720;2023-02-12T03:54:44;100049.03;;;8.31;64.11
34983;BME280;21187;50.976;13.720;2023-02-12T03:59:47;100062.53;;;8.31;64.45
34983;BME280;21187;50.976;13.720;2023-02-12T04:04:50;100068.16;;;8.35;63.49
34983;BME280;21187;50.976;13.720;2023-02-12T04:09:52;100073.34;;;8.31;63.94
34983;BME280;21187;50.976;13.720;2023-02-12T04:30:44;100072.06;;;8.53;63.04
34983;BME280;21187;50.976;13.720;2023-02-12T04:36:01;100077.38;;;8.58;63.19
34983;BME280;21187;50.976;13.720;2023-02-12T04:41:05;100077.44;;;8.53;62.99
34983;BME280;21187;50.976;13.720;2023-02-12T04:46:08;100084.50;;;8.48;62.79
34983;BME280;21187;50.976;13.720;2023-02-12T04:51:10;100085.59;;;8.47;63.07
34983;BME280;21187;50.976;13.720;2023-02-12T04:56:12;100084.00;;;8.46;63.07
34983;BME280;21187;50.976;13.720;2023-02-12T05:01:14;100084.81;;;8.42;63.21
34983;BME280;21187;50.976;13.720;2023-02-12T05:06:16;100095.81;;;8.51;63.22
34983;BME280;21187;50.976;13.720;2023-02-12T05:11:18;100097.94;;;8.54;63.11
34983;BME280;21187;50.976;13.720;2023-02-12T05:16:21;100095.53;;;8.52;63.03
34983;BME280;21187;50.976;13.720;2023-02-12T05:21:23;100106.34;;;8.52;63.26
34983;BME280;21187;50.976;13.720;2023-02-12T05:26:25;100109.84;;;8.53;62.77
34983;BME280;21187;50.976;13.720;2023-02-12T05:31:26;100111.44;;;8.54;63.22
34983;BME280;21187;50.976;13.720;2023-02-12T05:36:28;100110.66;;;8.53;63.30
34983;BME280;21187;50.976;13.720;2023-02-12T05:41:30;100112.63;;;8.42;63.57
34983;BME280;21187;50.976;13.720;2023-02-12T05:46:35;100119.66;;;8.43;63.29
34983;BME280;21187;50.976;13.720;2023-02-12T05:51:37;100115.88;;;8.39;63.10
34983;BME280;21187;50.976;13.720;2023-02-12T05:56:45;100117.75;;;8.44;63.55
34983;BME280;21187;50.976;13.720;2023-02-12T06:01:48;100112.09;;;8.40;63.18
34983;BME280;21187;50.976;13.720;2023-02-12T06:06:51;100126.44;;;8.41;63.38
34983;BME280;21187;50.976;13.720;2023-02-12T06:11:53;100131.53;;;8.42;63.80
34983;BME280;21187;50.976;13.720;2023-02-12T06:16:55;100135.03;;;8.43;63.39
34983;BME280;21187;50.976;13.720;2023-02-12T06:21:56;100145.50;;;8.49;63.49
34983;BME280;21187;50.976;13.720;2023-02-12T06:26:58;100147.19;;;8.45;63.00
34983;BME280;21187;50.976;13.720;2023-02-12T06:32:00;100154.75;;;8.43;63.67
34983;BME280;21187;50.976;13.720;2023-02-12T06:37:02;100169.81;;;8.49;63.36
34983;BME280;21187;50.976;13.720;2023-02-12T06:42:04;100182.22;;;8.51;63.35
34983;BME280;21187;50.976;13.720;2023-02-12T06:47:06;100187.06;;;8.54;63.31
34983;BME280;21187;50.976;13.720;2023-02-12T06:52:08;100187.28;;;8.57;63.40
34983;BME280;21187;50.976;13.720;2023-02-12T06:57:10;100195.94;;;8.59;63.61
34983;BME280;21187;50.976;13.720;2023-02-12T07:02:12;100195.94;;;8.59;63.39
34983;BME280;21187;50.976;13.720;2023-02-12T07:07:14;100204.78;;;8.65;63.39
34983;BME280;21187;50.976;13.720;2023-02-12T07:12:16;100201.53;;;8.63;62.92
34983;BME280;21187;50.976;13.720;2023-02-12T07:17:18;100211.25;;;8.64;63.54
34983;BME280;21187;50.976;13.720;2023-02-12T07:22:20;100209.03;;;8.71;62.74
34983;BME280;21187;50.976;13.720;2023-02-12T07:27:22;100221.38;;;8.77;63.04
34983;BME280;21187;50.976;13.720;2023-02-12T07:32:24;100219.22;;;8.79;62.62
34983;BME280;21187;50.976;13.720;2023-02-12T07:37:26;100221.91;;;8.79;62.61
34983;BME280;21187;50.976;13.720;2023-02-12T07:42:28;100221.63;;;8.81;62.85
34983;BME280;21187;50.976;13.720;2023-02-12T07:47:31;100224.03;;;8.82;62.73
34983;BME280;21187;50.976;13.720;2023-02-12T07:52:33;100236.97;;;8.86;62.80
34983;BME280;21187;50.976;13.720;2023-02-12T07:57:35;100231.56;;;8.86;62.98
34983;BME280;21187;50.976;13.720;2023-02-12T08:02:37;100238.81;;;8.90;62.66
34983;BME280;21187;50.976;13.720;2023-02-12T08:07:39;100237.38;;;8.98;62.80
34983;BME280;21187;50.976;13.720;2023-02-12T08:12:41;100239.97;;;9.08;62.34
34983;BME280;21187;50.976;13.720;2023-02-12T08:17:42;100241.78;;;9.13;62.18
34983;BME280;21187;50.976;13.720;2023-02-12T08:22:44;100248.22;;;9.17;62.55
34983;BME280;21187;50.976;13.720;2023-02-12T08:27:46;100247.44;;;9.16;62.70
34983;BME280;21187;50.976;13.720;2023-02-12T08:32:48;100248.22;;;9.17;62.18
34983;BME280;21187;50.976;13.720;2023-02-12T08:37:50;100245.81;;;9.15;62.54
34983;BME280;21187;50.976;13.720;2023-02-12T08:42:53;100256.19;;;9.08;62.83
34983;BME280;21187;50.976;13.720;2023-02-12T08:47:55;100268.13;;;9.02;63.50
34983;BME280;21187;50.976;13.720;2023-02-12T08:52:57;100258.34;;;9.06;62.96
34983;BME280;21187;50.976;13.720;2023-02-12T08:57:59;100269.16;;;9.06;63.58
34983;BME280;21187;50.976;13.720;2023-02-12T09:03:01;100277.81;;;9.08;63.06
34983;BME280;21187;50.976;13.720;2023-02-12T09:08:03;100282.03;;;9.14;62.62
34983;BME280;21187;50.976;13.720;2023-02-12T09:13:06;100287.94;;;9.22;62.85
34983;BME280;21187;50.976;13.720;2023-02-12T09:18:12;100292.69;;;9.30;62.70
34983;BME280;21187;50.976;13.720;2023-02-12T09:23:14;100293.22;;;9.32;62.52
34983;BME280;21187;50.976;13.720;2023-02-12T09:28:16;100298.03;;;9.35;62.83
34983;BME280;21187;50.976;13.720;2023-02-12T09:33:18;100300.97;;;9.39;62.58
34983;BME280;21187;50.976;13.720;2023-02-12T09:38:20;100307.72;;;9.41;62.42
34983;BME280;21187;50.976;13.720;2023-02-12T09:43:43;100312.53;;;9.44;62.64
34983;BME280;21187;50.976;13.720;2023-02-12T09:53:49;100314.66;;;9.47;62.28
34983;BME280;21187;50.976;13.720;2023-02-12T09:58:59;100324.38;;;9.48;62.04
34983;BME280;21187;50.976;13.720;2023-02-12T10:04:03;100319.50;;;9.51;62.28
34983;BME280;21187;50.976;13.720;2023-02-12T10:14:48;100330.13;;;9.42;62.86
34983;BME280;21187;50.976;13.720;2023-02-12T10:35:22;100325.19;;;9.49;63.53
34983;BME280;21187;50.976;13.720;2023-02-12T10:40:30;100331.41;;;9.49;63.42
34983;BME280;21187;50.976;13.720;2023-02-12T10:45:36;100324.84;;;9.56;63.59
34983;BME280;21187;50.976;13.720;2023-02-12T10:50:43;100332.91;;;9.61;63.26
34983;BME280;21187;50.976;13.720;2023-02-12T10:55:49;100322.50;;;9.68;63.77
34983;BME280;21187;50.976;13.720;2023-02-12T11:01:14;100320.34;;;9.70;63.93
34983;BME280;21187;50.976;13.720;2023-02-12T11:06:20;100320.19;;;9.80;63.55
34983;BME280;21187;50.976;13.720;2023-02-12T11:11:28;100318.22;;;9.86;63.69
34983;BME280;21187;50.976;13.720;2023-02-12T11:16:36;100308.28;;;10.01;63.47
34983;BME280;21187;50.976;13.720;2023-02-12T11:21:41;100305.69;;;10.09;62.90
34983;BME280;21187;50.976;13.720;2023-02-12T11:26:43;100310.53;;;10.12;62.64
34983;BME280;21187;50.976;13.720;2023-02-12T11:32:03;100301.31;;;10.13;62.97
34983;BME280;21187;50.976;13.720;2023-02-12T11:37:14;100306.81;;;10.08;62.76
34983;BME280;21187;50.976;13.720;2023-02-12T11:42:19;100303.25;;;9.94;63.13
34983;BME280;21187;50.976;13.720;2023-02-12T11:47:32;100302.34;;;9.98;63.12
34983;BME280;21187;50.976;13.720;2023-02-12T11:52:36;100303.75;;;10.15;62.94
34983;BME280;21187;50.976;13.720;2023-02-12T11:57:46;100298.53;;;10.19;62.07
34983;BME280;21187;50.976;13.720;2023-02-12T12:02:54;100301.16;;;10.24;62.60
34983;BME280;21187;50.976;13.720;2023-02-12T12:08:02;100302.78;;;10.25;62.57
34983;BME280;21187;50.976;13.720;2023-02-12T12:13:12;100303.78;;;10.29;61.90
34983;BME280;21187;50.976;13.720;2023-02-12T12:24:00;100303.56;;;10.44;61.64
34983;BME280;21187;50.976;13.720;2023-02-12T12:29:11;100299.25;;;10.43;61.38
34983;BME280;21187;50.976;13.720;2023-02-12T12:34:21;100292.81;;;10.39;61.65
34983;BME280;21187;50.976;13.720;2023-02-12T12:39:38;100294.44;;;10.40;61.44
34983;BME280;21187;50.976;13.720;2023-02-12T12:50:26;100291.22;;;10.38;60.90
34983;BME280;21187;50.976;13.720;2023-02-12T12:55:43;100281.53;;;10.32;60.79
34983;BME280;21187;50.976;13.720;2023-02-12T13:01:04;100279.50;;;10.24;60.96
34983;BME280;21187;50.976;13.720;2023-02-12T13:11:36;100276.78;;;10.24;60.97
34983;BME280;21187;50.976;13.720;2023-02-12T13:16:54;100274.06;;;10.24;60.93
34983;BME280;21187;50.976;13.720;2023-02-12T13:22:08;100281.19;;;10.20;61.26
34983;BME280;21187;50.976;13.720;2023-02-12T13:32:28;100280.38;;;10.00;61.35
34983;BME280;21187;50.976;13.720;2023-02-12T13:37:37;100271.09;;;10.06;61.20
34983;BME280;21187;50.976;13.720;2023-02-12T13:53:24;100273.59;;;10.22;61.01
34983;BME280;21187;50.976;13.720;2023-02-12T14:03:36;100276.47;;;10.25;61.04
34983;BME280;21187;50.976;13.720;2023-02-12T14:08:41;100279.50;;;10.24;61.54
34983;BME280;21187;50.976;13.720;2023-02-12T14:13:54;100274.81;;;10.10;61.39
34983;BME280;21187;50.976;13.720;2023-02-12T14:24:47;100289.81;;;10.22;61.50
34983;BME280;21187;50.976;13.720;2023-02-12T14:35:38;100284.91;;;10.24;61.61
34983;BME280;21187;50.976;13.720;2023-02-12T14:40:44;100284.34;;;10.27;61.51
34983;BME280;21187;50.976;13.720;2023-02-12T14:45:47;100286.53;;;10.25;61.72
34983;BME280;21187;50.976;13.720;2023-02-12T14:50:49;100290.91;;;10.21;61.76
34983;BME280;21187;50.976;13.720;2023-02-12T14:55:54;100281.09;;;10.25;61.48
34983;BME280;21187;50.976;13.720;2023-02-12T15:00:59;100286.44;;;10.30;61.70
34983;BME280;21187;50.976;13.720;2023-02-12T15:06:17;100286.88;;;10.37;61.56
34983;BME280;21187;50.976;13.720;2023-02-12T15:11:49;100293.63;;;10.40;61.04
34983;BME280;21187;50.976;13.720;2023-02-12T15:17:04;100297.06;;;10.45;61.24
34983;BME280;21187;50.976;13.720;2023-02-12T15:22:19;100296.75;;;10.47;61.25
34983;BME280;21187;50.976;13.720;2023-02-12T15:27:23;100295.44;;;10.44;60.70
34983;BME280;21187;50.976;13.720;2023-02-12T15:32:27;100297.06;;;10.45;61.08
34983;BME280;21187;50.976;13.720;2023-02-12T15:37:38;100302.47;;;10.45;60.94
34983;BME280;21187;50.976;13.720;2023-02-12T15:43:15;100302.47;;;10.45;61.11
34983;BME280;21187;50.976;13.720;2023-02-12T15:48:21;100302.47;;;10.45;61.00
34983;BME280;21187;50.976;13.720;2023-02-12T15:53:26;100297.06;;;10.45;60.89
34983;BME280;21187;50.976;13.720;2023-02-12T15:58:51;100293.22;;;10.46;60.65
34983;BME280;21187;50.976;13.720;2023-02-12T16:04:05;100296.84;;;10.42;61.00
34983;BME280;21187;50.976;13.720;2023-02-12T16:09:15;100299.84;;;10.40;61.01
34983;BME280;21187;50.976;13.720;2023-02-12T16:14:22;100301.59;;;10.31;61.43
34983;BME280;21187;50.976;13.720;2023-02-12T16:19:29;100305.41;;;10.30;61.24
34983;BME280;21187;50.976;13.720;2023-02-12T16:24:39;100309.28;;;10.24;61.25
34983;BME280;21187;50.976;13.720;2023-02-12T16:29:48;100312.06;;;10.19;60.96
34983;BME280;21187;50.976;13.720;2023-02-12T16:35:00;100315.50;;;10.05;61.53
34983;BME280;21187;50.976;13.720;2023-02-12T16:45:40;100329.56;;;10.07;61.58
34983;BME280;21187;50.976;13.720;2023-02-12T16:50:57;100327.53;;;9.99;61.58
34983;BME280;21187;50.976;13.720;2023-02-12T16:56:02;100328.03;;;9.82;61.96
34983;BME280;21187;50.976;13.720;2023-02-12T17:01:04;100329.41;;;9.79;61.57
34983;BME280;21187;50.976;13.720;2023-02-12T17:06:08;100332.19;;;9.74;61.71
34983;BME280;21187;50.976;13.720;2023-02-12T17:11:11;100344.16;;;9.68;61.50
34983;BME280;21187;50.976;13.720;2023-02-12T17:16:15;100343.72;;;9.61;61.95
34983;BME280;21187;50.976;13.720;2023-02-12T17:21:33;100341.06;;;9.56;61.83
34983;BME280;21187;50.976;13.720;2023-02-12T17:26:38;100347.69;;;9.44;62.42
34983;BME280;21187;50.976;13.720;2023-02-12T17:31:40;100355.56;;;9.41;61.93
34983;BME280;21187;50.976;13.720;2023-02-12T17:36:42;100354.88;;;9.30;62.47
34983;BME280;21187;50.976;13.720;2023-02-12T17:41:45;100349.53;;;9.25;62.72
34983;BME280;21187;50.976;13.720;2023-02-12T17:46:47;100365.19;;;9.28;62.92
34983;BME280;21187;50.976;13.720;2023-02-12T17:51:49;100365.69;;;9.30;62.95
34983;BME280;21187;50.976;13.720;2023-02-12T17:56:51;100371.78;;;9.41;62.43
34983;BME280;21187;50.976;13.720;2023-02-12T18:01:52;100362.25;;;9.48;62.52
34983;BME280;21187;50.976;13.720;2023-02-12T18:06:55;100366.56;;;9.49;62.04
34983;BME280;21187;50.976;13.720;2023-02-12T18:11:57;100374.22;;;9.42;62.59
34983;BME280;21187;50.976;13.720;2023-02-12T18:16:59;100373.16;;;9.38;62.03
34983;BME280;21187;50.976;13.720;2023-02-12T18:22:01;100378.03;;;9.41;62.28
34983;BME280;21187;50.976;13.720;2023-02-12T18:27:03;100372.13;;;9.34;61.89
34983;BME280;21187;50.976;13.720;2023-02-12T18:32:06;100374.88;;;9.29;62.19
34983;BME280;21187;50.976;13.720;2023-02-12T18:37:10;100377.53;;;9.34;62.29
34983;BME280;21187;50.976;13.720;2023-02-12T18:42:12;100377.69;;;9.24;62.12
34983;BME280;21187;50.976;13.720;2023-02-12T18:47:14;100372.56;;;9.17;62.31
34983;BME280;21187;50.976;13.720;2023-02-12T18:52:19;100368.53;;;9.14;62.36
34983;BME280;21187;50.976;13.720;2023-02-12T18:57:21;100364.22;;;9.19;62.34
34983;BME280;21187;50.976;13.720;2023-02-12T19:02:23;100366.84;;;9.24;62.20
34983;BME280;21187;50.976;13.720;2023-02-12T19:07:26;100375.41;;;9.31;62.39
34983;BME280;21187;50.976;13.720;2023-02-12T19:12:28;100366.16;;;9.37;62.37
34983;BME280;21187;50.976;13.720;2023-02-12T19:17:29;100362.50;;;9.28;62.26
34983;BME280;21187;50.976;13.720;2023-02-12T19:22:31;100368.09;;;9.07;62.94
34983;BME280;21187;50.976;13.720;2023-02-12T19:27:33;100364.34;;;9.03;62.93
34983;BME280;21187;50.976;13.720;2023-02-12T19:32:36;100364.97;;;8.95;63.27
34983;BME280;21187;50.976;13.720;2023-02-12T19:37:38;100357.38;;;8.97;63.41
34983;BME280;21187;50.976;13.720;2023-02-12T19:42:40;100352.44;;;9.04;63.49
34983;BME280;21187;50.976;13.720;2023-02-12T19:47:42;100355.41;;;9.03;63.23
34983;BME280;21187;50.976;13.720;2023-02-12T19:52:44;100355.66;;;9.06;63.75
34983;BME280;21187;50.976;13.720;2023-02-12T19:57:45;100357.22;;;9.12;63.27
34983;BME280;21187;50.976;13.720;2023-02-12T20:02:48;100351.28;;;9.10;62.80
34983;BME280;21187;50.976;13.720;2023-02-12T20:07:50;100349.06;;;9.18;62.57
34983;BME280;21187;50.976;13.720;2023-02-12T20:12:52;100345.53;;;9.17;62.90
34983;BME280;21187;50.976;13.720;2023-02-12T20:17:54;100338.88;;;9.09;62.85
34983;BME280;21187;50.976;13.720;2023-02-12T20:22:56;100344.28;;;9.09;62.87
34983;BME280;21187;50.976;13.720;2023-02-12T20:27:58;100339.50;;;9.01;63.51
34983;BME280;21187;50.976;13.720;2023-02-12T20:33:00;100334.38;;;8.99;63.40
34983;BME280;21187;50.976;13.720;2023-02-12T20:38:03;100337.81;;;9.05;63.13
34983;BME280;21187;50.976;13.720;2023-02-12T20:43:05;100344.56;;;9.08;62.85
34983;BME280;21187;50.976;13.720;2023-02-12T20:48:07;100354.03;;;9.05;63.28
34983;BME280;21187;50.976;13.720;2023-02-12T20:53:09;100362.22;;;9.00;62.86
34983;BME280;21187;50.976;13.720;2023-02-12T20:58:11;100356.34;;;8.93;63.69
34983;BME280;21187;50.976;13.720;2023-02-12T21:03:12;100357.38;;;8.97;63.59
34983;BME280;21187;50.976;13.720;2023-02-12T21:08:14;100357.81;;;9.09;63.18
34983;BME280;21187;50.976;13.720;2023-02-12T21:13:16;100347.50;;;9.11;62.76
34983;BME280;21187;50.976;13.720;2023-02-12T21:18:18;100356.16;;;9.13;63.12
34983;BME280;21187;50.976;13.720;2023-02-12T21:23:24;100361.56;;;9.13;62.49
34983;BME280;21187;50.976;13.720;2023-02-12T21:28:27;100344.09;;;9.01;62.95
34983;BME280;21187;50.976;13.720;2023-02-12T21:33:29;100357.84;;;9.04;62.94
34983;BME280;21187;50.976;13.720;2023-02-12T21:38:32;100343.72;;;9.12;62.27
34983;BME280;21187;50.976;13.720;2023-02-12T21:43:36;100349.16;;;9.07;62.60
34983;BME280;21187;50.976;13.720;2023-02-12T21:48:38;100358.66;;;9.05;62.31
34983;BME280;21187;50.976;13.720;2023-02-12T21:53:40;100355.19;;;8.99;62.98
34983;BME280;21187;50.976;13.720;2023-02-12T21:58:42;100353.59;;;8.98;62.77
34983;BME280;21187;50.976;13.720;2023-02-12T22:03:44;100350.13;;;8.92;62.34
34983;BME280;21187;50.976;13.720;2023-02-12T22:08:45;100352.06;;;8.87;62.53
34983;BME280;21187;50.976;13.720;2023-02-12T22:13:48;100347.81;;;8.80;62.59
34983;BME280;21187;50.976;13.720;2023-02-12T22:18:51;100345.75;;;8.67;63.31
34983;BME280;21187;50.976;13.720;2023-02-12T22:23:56;100349.50;;;8.71;63.01
34983;BME280;21187;50.976;13.720;2023-02-12T22:29:02;100338.03;;;8.85;62.69
34983;BME280;21187;50.976;13.720;2023-02-12T22:34:16;100339.38;;;8.87;62.88
34983;BME280;21187;50.976;13.720;2023-02-12T22:39:19;100355.28;;;8.89;62.75
34983;BME280;21187;50.976;13.720;2023-02-12T22:44:21;100353.22;;;8.80;62.82
34983;BME280;21187;50.976;13.720;2023-02-12T22:49:23;100359.69;;;8.79;62.91
34983;BME280;21187;50.976;13.720;2023-02-12T22:54:25;100365.00;;;8.90;62.60
34983;BME280;21187;50.976;13.720;2023-02-12T22:59:27;100361.69;;;8.98;62.55
34983;BME280;21187;50.976;13.720;2023-02-12T23:04:29;100352.88;;;8.87;62.51
34983;BME280;21187;50.976;13.720;2023-02-12T23:09:31;100357.41;;;8.92;62.12
34983;BME280;21187;50.976;13.720;2023-02-12T23:14:33;100346.91;;;8.90;62.23
34983;BME280;21187;50.976;13.720;2023-02-12T23:19:36;100355.03;;;8.85;62.43
34983;BME280;21187;50.976;13.720;2023-02-12T23:24:38;100355.75;;;8.96;62.10
34983;BME280;21187;50.976;13.720;2023-02-12T23:29:40;100348.72;;;9.00;62.05
34983;BME280;21187;50.976;13.720;2023-02-12T23:34:42;100345.44;;;9.03;62.63
34983;BME280;21187;50.976;13.720;2023-02-12T23:39:44;100344.38;;;8.99;61.98
34983;BME280;21187;50.976;13.720;2023-02-12T23:44:46;100341.41;;;9.01;62.38
34983;BME280;21187;50.976;13.720;2023-02-12T23:49:48;100352.78;;;8.97;62.06
34983;BME280;21187;50.976;13.720;2023-02-12T23:54:50;100342.31;;;8.91;62.41
34983;BME280;21187;50.976;13.720;2023-02-12T23:59:52;100336.41;;;8.83;62.73
